Ominato, Japan

5:37 PM JST on July 02, 2015 (GMT +0900)
Hakodate | | Change Station
CLOSE
Current Station
Airport
Location: Hakodate Airport,
Elevation: 118 ft
Nearby Weather Stations

Elev 118 ft 41.77 °N, 140.82 °E | Updated 37 minutes ago

Mostly Cloudy
Mostly Cloudy
66 °F
Feels Like 66 °F
N
2
Wind Variable Wind from Variable

Today
High -- | Low -- °F
--% Chance of Precip.
Yesterday
High -- | Low -- °F
Precip. -- in
4:06 AM 7:12 PM
Full, 100% visible
Pressure 29.50 in
Visibility 6.2 miles
Clouds Few 800 ft
Scattered Clouds 1200 ft
Mostly Cloudy 1800 ft
Dew Point 63 °F
Humidity 88%
Rainfall 0.00 in
Snow Depth Not available.
UV 1 out of 12
Pollen Not available.
Air Quality Not available.
Flu Activity Not available.
METAR RJCH 020800Z VRB02KT 9999 FEW008 SCT012 BKN018 19/17 Q0999

More Conditions Fewer Conditions

Pressure 29.50 in
Visibility 6.2 miles
Clouds Few 800 ft
Scattered Clouds 1200 ft
Mostly Cloudy 1800 ft
Dew Point 63 °F
Humidity 88%
Rainfall 0.00 in
Snow Depth Not available.
UV 1 out of 12
Pollen Not available.
Air Quality Not available.
Flu Activity Not available.
METAR RJCH 020800Z VRB02KT 9999 FEW008 SCT012 BKN018 19/17 Q0999

More Conditions Fewer Conditions

10-Day Weather Forecast

×

Almanac

Astronomy

Jul. 02, 2015 Rise Set
Actual Time
Civil Twilight
Nautical Twilight
Astronomical Twilight
Moon
Length of Visible Light
Length of Day
Tomorrow will be .
, % of the Moon is Illuminated

Today's Extremes

Country Highs Country Lows

Community

WunderPhotos

Upload Photos

1,834,423 photos uploaded!

WunderBlogs® & News

Nearby

Air Quality

  Air Quality AQ Index Pollutant
Not available.

Snow Depth

Station Depth Elevation

Earthquake Activity

City Distance Mag. Time & Date
Minimum magnitude displayed is 2.5.

Coastal Water Temperatures

Place Temperature

Stations

Nearby Weather Stations

Station Location Temp. Windchill Dew Point Humidity Wind Precip. Elev Updated Type